sensor_id;sensor_type;location;lat;lon;timestamp;P1;durP1;ratioP1;P2;durP2;ratioP2
32946;SDS011;54465;51.230;22.504;2023-04-15T00:02:17;7.53;;;3.97;;
32946;SDS011;54465;51.230;22.504;2023-04-15T00:07:18;9.55;;;3.88;;
32946;SDS011;54465;51.230;22.504;2023-04-15T00:12:19;6.55;;;4.22;;
32946;SDS011;54465;51.230;22.504;2023-04-15T00:17:20;6.85;;;3.80;;
32946;SDS011;54465;51.230;22.504;2023-04-15T00:22:21;8.45;;;4.25;;
32946;SDS011;54465;51.230;22.504;2023-04-15T00:27:21;8.32;;;5.05;;
32946;SDS011;54465;51.230;22.504;2023-04-15T00:32:22;9.60;;;4.43;;
32946;SDS011;54465;51.230;22.504;2023-04-15T00:37:22;9.23;;;4.60;;
32946;SDS011;54465;51.230;22.504;2023-04-15T00:42:23;8.88;;;4.38;;
32946;SDS011;54465;51.230;22.504;2023-04-15T00:47:24;10.75;;;4.70;;
32946;SDS011;54465;51.230;22.504;2023-04-15T00:52:26;7.45;;;3.67;;
32946;SDS011;54465;51.230;22.504;2023-04-15T00:57:27;7.25;;;4.50;;
32946;SDS011;54465;51.230;22.504;2023-04-15T01:02:28;6.05;;;4.38;;
32946;SDS011;54465;51.230;22.504;2023-04-15T01:07:28;7.22;;;4.50;;
32946;SDS011;54465;51.230;22.504;2023-04-15T01:12:30;10.40;;;5.20;;
32946;SDS011;54465;51.230;22.504;2023-04-15T01:17:32;7.20;;;3.95;;
32946;SDS011;54465;51.230;22.504;2023-04-15T01:22:32;8.48;;;4.60;;
32946;SDS011;54465;51.230;22.504;2023-04-15T01:27:33;8.65;;;4.40;;
32946;SDS011;54465;51.230;22.504;2023-04-15T01:32:35;8.25;;;4.50;;
32946;SDS011;54465;51.230;22.504;2023-04-15T01:37:54;6.75;;;3.72;;
32946;SDS011;54465;51.230;22.504;2023-04-15T01:43:08;7.55;;;4.18;;
32946;SDS011;54465;51.230;22.504;2023-04-15T01:48:10;9.45;;;5.03;;
32946;SDS011;54465;51.230;22.504;2023-04-15T01:53:12;8.45;;;4.78;;
32946;SDS011;54465;51.230;22.504;2023-04-15T01:58:15;7.32;;;4.40;;
32946;SDS011;54465;51.230;22.504;2023-04-15T02:03:18;7.00;;;3.65;;
32946;SDS011;54465;51.230;22.504;2023-04-15T02:08:20;6.03;;;3.45;;
32946;SDS011;54465;51.230;22.504;2023-04-15T02:13:22;8.43;;;4.22;;
32946;SDS011;54465;51.230;22.504;2023-04-15T02:18:24;9.30;;;4.35;;
32946;SDS011;54465;51.230;22.504;2023-04-15T02:23:25;7.25;;;4.18;;
32946;SDS011;54465;51.230;22.504;2023-04-15T02:28:27;7.97;;;3.28;;
32946;SDS011;54465;51.230;22.504;2023-04-15T02:33:29;7.35;;;3.50;;
32946;SDS011;54465;51.230;22.504;2023-04-15T02:38:34;4.90;;;3.22;;
32946;SDS011;54465;51.230;22.504;2023-04-15T02:43:36;4.28;;;2.92;;
32946;SDS011;54465;51.230;22.504;2023-04-15T02:48:40;6.20;;;3.38;;
32946;SDS011;54465;51.230;22.504;2023-04-15T02:53:43;5.60;;;3.40;;
32946;SDS011;54465;51.230;22.504;2023-04-15T02:58:46;6.72;;;3.22;;
32946;SDS011;54465;51.230;22.504;2023-04-15T03:03:50;5.60;;;3.10;;
32946;SDS011;54465;51.230;22.504;2023-04-15T03:08:52;6.22;;;3.28;;
32946;SDS011;54465;51.230;22.504;2023-04-15T03:13:55;4.15;;;2.33;;
32946;SDS011;54465;51.230;22.504;2023-04-15T03:19:04;6.05;;;2.88;;
32946;SDS011;54465;51.230;22.504;2023-04-15T03:24:07;5.32;;;3.20;;
32946;SDS011;54465;51.230;22.504;2023-04-15T03:29:09;4.95;;;2.75;;
32946;SDS011;54465;51.230;22.504;2023-04-15T03:34:11;3.55;;;2.60;;
32946;SDS011;54465;51.230;22.504;2023-04-15T03:39:13;5.43;;;3.60;;
32946;SDS011;54465;51.230;22.504;2023-04-15T03:44:15;4.45;;;2.75;;
32946;SDS011;54465;51.230;22.504;2023-04-15T03:49:16;4.75;;;2.42;;
32946;SDS011;54465;51.230;22.504;2023-04-15T03:54:19;6.18;;;3.55;;
32946;SDS011;54465;51.230;22.504;2023-04-15T03:59:21;4.57;;;3.17;;
32946;SDS011;54465;51.230;22.504;2023-04-15T04:04:23;4.63;;;2.78;;
32946;SDS011;54465;51.230;22.504;2023-04-15T04:09:24;4.03;;;2.33;;
32946;SDS011;54465;51.230;22.504;2023-04-15T04:14:26;4.32;;;2.40;;
32946;SDS011;54465;51.230;22.504;2023-04-15T04:19:30;4.88;;;2.30;;
32946;SDS011;54465;51.230;22.504;2023-04-15T04:24:31;5.00;;;2.95;;
32946;SDS011;54465;51.230;22.504;2023-04-15T04:29:33;3.58;;;2.30;;
32946;SDS011;54465;51.230;22.504;2023-04-15T04:34:35;4.30;;;2.70;;
32946;SDS011;54465;51.230;22.504;2023-04-15T04:39:37;4.32;;;2.47;;
32946;SDS011;54465;51.230;22.504;2023-04-15T04:44:38;3.17;;;2.08;;
32946;SDS011;54465;51.230;22.504;2023-04-15T04:49:40;4.50;;;2.92;;
32946;SDS011;54465;51.230;22.504;2023-04-15T04:54:42;3.25;;;2.10;;
32946;SDS011;54465;51.230;22.504;2023-04-15T04:59:44;4.40;;;2.58;;
32946;SDS011;54465;51.230;22.504;2023-04-15T05:04:46;4.15;;;2.40;;
32946;SDS011;54465;51.230;22.504;2023-04-15T05:09:47;4.43;;;2.17;;
32946;SDS011;54465;51.230;22.504;2023-04-15T05:14:49;3.83;;;2.70;;
32946;SDS011;54465;51.230;22.504;2023-04-15T05:19:51;3.17;;;2.75;;
32946;SDS011;54465;51.230;22.504;2023-04-15T05:24:54;3.53;;;2.03;;
32946;SDS011;54465;51.230;22.504;2023-04-15T05:29:56;3.65;;;2.22;;
32946;SDS011;54465;51.230;22.504;2023-04-15T05:34:58;4.00;;;2.30;;
32946;SDS011;54465;51.230;22.504;2023-04-15T05:39:59;3.95;;;2.80;;
32946;SDS011;54465;51.230;22.504;2023-04-15T05:45:01;3.22;;;2.28;;
32946;SDS011;54465;51.230;22.504;2023-04-15T05:50:09;3.75;;;2.15;;
32946;SDS011;54465;51.230;22.504;2023-04-15T05:55:11;4.22;;;1.73;;
32946;SDS011;54465;51.230;22.504;2023-04-15T06:00:13;3.38;;;2.05;;
32946;SDS011;54465;51.230;22.504;2023-04-15T06:05:15;4.20;;;2.03;;
32946;SDS011;54465;51.230;22.504;2023-04-15T06:10:17;2.10;;;1.58;;
32946;SDS011;54465;51.230;22.504;2023-04-15T06:15:19;2.60;;;2.00;;
32946;SDS011;54465;51.230;22.504;2023-04-15T06:20:21;2.00;;;1.73;;
32946;SDS011;54465;51.230;22.504;2023-04-15T06:25:22;3.78;;;2.00;;
32946;SDS011;54465;51.230;22.504;2023-04-15T06:30:24;2.63;;;1.92;;
32946;SDS011;54465;51.230;22.504;2023-04-15T06:35:26;2.50;;;1.73;;
32946;SDS011;54465;51.230;22.504;2023-04-15T06:40:27;3.05;;;2.10;;
32946;SDS011;54465;51.230;22.504;2023-04-15T06:45:29;3.10;;;2.20;;
32946;SDS011;54465;51.230;22.504;2023-04-15T06:50:31;2.80;;;1.55;;
32946;SDS011;54465;51.230;22.504;2023-04-15T06:55:34;3.80;;;1.83;;
32946;SDS011;54465;51.230;22.504;2023-04-15T07:00:35;3.22;;;1.83;;
32946;SDS011;54465;51.230;22.504;2023-04-15T07:05:39;2.22;;;1.90;;
32946;SDS011;54465;51.230;22.504;2023-04-15T07:10:41;6.15;;;2.15;;
32946;SDS011;54465;51.230;22.504;2023-04-15T07:15:43;2.35;;;1.42;;
32946;SDS011;54465;51.230;22.504;2023-04-15T07:20:46;2.05;;;1.70;;
32946;SDS011;54465;51.230;22.504;2023-04-15T07:25:48;1.08;;;0.95;;
32946;SDS011;54465;51.230;22.504;2023-04-15T07:30:50;1.70;;;1.25;;
32946;SDS011;54465;51.230;22.504;2023-04-15T07:35:51;1.98;;;1.35;;
32946;SDS011;54465;51.230;22.504;2023-04-15T07:40:53;1.45;;;0.82;;
32946;SDS011;54465;51.230;22.504;2023-04-15T07:45:55;1.92;;;0.80;;
32946;SDS011;54465;51.230;22.504;2023-04-15T07:50:57;1.08;;;0.63;;
32946;SDS011;54465;51.230;22.504;2023-04-15T07:55:59;1.35;;;0.68;;
32946;SDS011;54465;51.230;22.504;2023-04-15T08:01:00;1.02;;;0.60;;
32946;SDS011;54465;51.230;22.504;2023-04-15T08:06:03;0.88;;;0.63;;
32946;SDS011;54465;51.230;22.504;2023-04-15T08:11:04;1.33;;;0.77;;
32946;SDS011;54465;51.230;22.504;2023-04-15T08:21:16;1.17;;;0.70;;
32946;SDS011;54465;51.230;22.504;2023-04-15T08:26:19;1.02;;;0.60;;
32946;SDS011;54465;51.230;22.504;2023-04-15T08:31:22;1.20;;;0.60;;
32946;SDS011;54465;51.230;22.504;2023-04-15T08:36:23;0.65;;;0.38;;
32946;SDS011;54465;51.230;22.504;2023-04-15T08:41:26;0.75;;;0.45;;
32946;SDS011;54465;51.230;22.504;2023-04-15T08:46:48;0.73;;;0.40;;
32946;SDS011;54465;51.230;22.504;2023-04-15T08:51:50;1.45;;;0.50;;
32946;SDS011;54465;51.230;22.504;2023-04-15T08:56:52;0.35;;;0.25;;
32946;SDS011;54465;51.230;22.504;2023-04-15T09:01:54;1.35;;;0.60;;
32946;SDS011;54465;51.230;22.504;2023-04-15T09:06:57;1.10;;;0.60;;
32946;SDS011;54465;51.230;22.504;2023-04-15T09:12:00;1.05;;;0.43;;
32946;SDS011;54465;51.230;22.504;2023-04-15T09:17:02;1.52;;;0.68;;
32946;SDS011;54465;51.230;22.504;2023-04-15T09:22:04;1.25;;;0.52;;
32946;SDS011;54465;51.230;22.504;2023-04-15T09:27:06;0.93;;;0.60;;
32946;SDS011;54465;51.230;22.504;2023-04-15T09:32:12;1.27;;;0.40;;
32946;SDS011;54465;51.230;22.504;2023-04-15T09:37:14;2.13;;;0.68;;
32946;SDS011;54465;51.230;22.504;2023-04-15T09:42:19;1.80;;;0.80;;
32946;SDS011;54465;51.230;22.504;2023-04-15T09:47:30;0.93;;;0.70;;
32946;SDS011;54465;51.230;22.504;2023-04-15T09:52:32;1.80;;;0.82;;
32946;SDS011;54465;51.230;22.504;2023-04-15T09:57:34;1.02;;;0.70;;
32946;SDS011;54465;51.230;22.504;2023-04-15T10:02:38;2.50;;;0.52;;
32946;SDS011;54465;51.230;22.504;2023-04-15T10:07:42;1.10;;;0.50;;
32946;SDS011;54465;51.230;22.504;2023-04-15T10:12:44;0.95;;;0.45;;
32946;SDS011;54465;51.230;22.504;2023-04-15T10:17:46;1.75;;;0.85;;
32946;SDS011;54465;51.230;22.504;2023-04-15T10:22:48;2.72;;;1.20;;
32946;SDS011;54465;51.230;22.504;2023-04-15T10:27:51;0.80;;;0.50;;
32946;SDS011;54465;51.230;22.504;2023-04-15T10:32:53;0.90;;;0.50;;
32946;SDS011;54465;51.230;22.504;2023-04-15T10:37:56;1.98;;;1.20;;
32946;SDS011;54465;51.230;22.504;2023-04-15T10:42:58;1.77;;;0.57;;
32946;SDS011;54465;51.230;22.504;2023-04-15T10:48:04;1.23;;;0.40;;
32946;SDS011;54465;51.230;22.504;2023-04-15T10:53:09;1.08;;;0.35;;
32946;SDS011;54465;51.230;22.504;2023-04-15T10:58:11;1.00;;;0.60;;
32946;SDS011;54465;51.230;22.504;2023-04-15T11:03:15;2.85;;;0.70;;
32946;SDS011;54465;51.230;22.504;2023-04-15T11:08:17;1.02;;;0.47;;
32946;SDS011;54465;51.230;22.504;2023-04-15T11:13:20;1.13;;;0.43;;
32946;SDS011;54465;51.230;22.504;2023-04-15T11:18:26;1.50;;;0.68;;
32946;SDS011;54465;51.230;22.504;2023-04-15T11:28:33;0.68;;;0.40;;
32946;SDS011;54465;51.230;22.504;2023-04-15T11:33:36;0.98;;;0.47;;
32946;SDS011;54465;51.230;22.504;2023-04-15T11:38:41;0.80;;;0.30;;
32946;SDS011;54465;51.230;22.504;2023-04-15T11:43:43;1.27;;;0.40;;
32946;SDS011;54465;51.230;22.504;2023-04-15T11:48:45;2.60;;;0.20;;
32946;SDS011;54465;51.230;22.504;2023-04-15T11:53:48;2.05;;;1.20;;
32946;SDS011;54465;51.230;22.504;2023-04-15T11:58:53;2.00;;;0.40;;
32946;SDS011;54465;51.230;22.504;2023-04-15T12:03:58;0.35;;;0.28;;
32946;SDS011;54465;51.230;22.504;2023-04-15T12:09:02;0.50;;;0.30;;
32946;SDS011;54465;51.230;22.504;2023-04-15T12:19:11;0.77;;;0.40;;
32946;SDS011;54465;51.230;22.504;2023-04-15T12:24:12;1.20;;;0.32;;
32946;SDS011;54465;51.230;22.504;2023-04-15T12:29:13;1.02;;;0.52;;
32946;SDS011;54465;51.230;22.504;2023-04-15T12:34:15;1.02;;;0.40;;
32946;SDS011;54465;51.230;22.504;2023-04-15T12:39:16;0.70;;;0.50;;
32946;SDS011;54465;51.230;22.504;2023-04-15T12:44:17;1.00;;;0.65;;
32946;SDS011;54465;51.230;22.504;2023-04-15T12:49:18;1.08;;;0.50;;
32946;SDS011;54465;51.230;22.504;2023-04-15T12:54:20;0.65;;;0.55;;
32946;SDS011;54465;51.230;22.504;2023-04-15T12:59:20;1.58;;;0.82;;
32946;SDS011;54465;51.230;22.504;2023-04-15T13:04:22;1.20;;;0.40;;
32946;SDS011;54465;51.230;22.504;2023-04-15T13:09:23;1.48;;;0.68;;
32946;SDS011;54465;51.230;22.504;2023-04-15T13:14:24;0.32;;;0.30;;
32946;SDS011;54465;51.230;22.504;2023-04-15T13:19:24;0.73;;;0.30;;
32946;SDS011;54465;51.230;22.504;2023-04-15T13:24:25;0.80;;;0.32;;
32946;SDS011;54465;51.230;22.504;2023-04-15T13:29:26;1.05;;;0.45;;
32946;SDS011;54465;51.230;22.504;2023-04-15T13:34:26;1.20;;;0.30;;
32946;SDS011;54465;51.230;22.504;2023-04-15T13:39:27;0.57;;;0.20;;
32946;SDS011;54465;51.230;22.504;2023-04-15T13:44:27;0.50;;;0.30;;
32946;SDS011;54465;51.230;22.504;2023-04-15T13:49:28;1.48;;;0.20;;
32946;SDS011;54465;51.230;22.504;2023-04-15T13:54:28;0.90;;;0.55;;
32946;SDS011;54465;51.230;22.504;2023-04-15T13:59:29;3.03;;;0.65;;
32946;SDS011;54465;51.230;22.504;2023-04-15T14:04:30;1.08;;;0.73;;
32946;SDS011;54465;51.230;22.504;2023-04-15T14:09:31;0.95;;;0.43;;
32946;SDS011;54465;51.230;22.504;2023-04-15T14:14:31;1.27;;;0.60;;
32946;SDS011;54465;51.230;22.504;2023-04-15T14:19:32;1.98;;;0.47;;
32946;SDS011;54465;51.230;22.504;2023-04-15T14:24:33;2.80;;;0.90;;
32946;SDS011;54465;51.230;22.504;2023-04-15T14:29:34;0.93;;;0.63;;
32946;SDS011;54465;51.230;22.504;2023-04-15T14:34:34;0.88;;;0.50;;
32946;SDS011;54465;51.230;22.504;2023-04-15T14:39:35;1.25;;;0.50;;
32946;SDS011;54465;51.230;22.504;2023-04-15T14:44:35;1.02;;;0.32;;
32946;SDS011;54465;51.230;22.504;2023-04-15T14:49:36;0.80;;;0.35;;
32946;SDS011;54465;51.230;22.504;2023-04-15T14:54:36;0.77;;;0.38;;
32946;SDS011;54465;51.230;22.504;2023-04-15T14:59:37;2.00;;;0.40;;
32946;SDS011;54465;51.230;22.504;2023-04-15T15:04:37;0.68;;;0.30;;
32946;SDS011;54465;51.230;22.504;2023-04-15T15:09:39;1.25;;;0.30;;
32946;SDS011;54465;51.230;22.504;2023-04-15T15:14:40;0.85;;;0.20;;
32946;SDS011;54465;51.230;22.504;2023-04-15T15:19:41;0.73;;;0.40;;
32946;SDS011;54465;51.230;22.504;2023-04-15T15:24:41;0.65;;;0.30;;
32946;SDS011;54465;51.230;22.504;2023-04-15T15:29:42;0.20;;;0.15;;
32946;SDS011;54465;51.230;22.504;2023-04-15T15:34:42;0.75;;;0.40;;
32946;SDS011;54465;51.230;22.504;2023-04-15T15:39:43;1.23;;;0.40;;
32946;SDS011;54465;51.230;22.504;2023-04-15T15:44:43;0.98;;;0.28;;
32946;SDS011;54465;51.230;22.504;2023-04-15T15:49:44;1.30;;;0.70;;
32946;SDS011;54465;51.230;22.504;2023-04-15T15:54:45;1.35;;;0.73;;
32946;SDS011;54465;51.230;22.504;2023-04-15T15:59:45;0.85;;;0.50;;
32946;SDS011;54465;51.230;22.504;2023-04-15T16:04:46;1.05;;;0.50;;
32946;SDS011;54465;51.230;22.504;2023-04-15T16:09:46;1.02;;;0.45;;
32946;SDS011;54465;51.230;22.504;2023-04-15T16:14:47;0.57;;;0.40;;
32946;SDS011;54465;51.230;22.504;2023-04-15T16:19:47;1.33;;;0.77;;
32946;SDS011;54465;51.230;22.504;2023-04-15T16:24:48;1.05;;;0.57;;
32946;SDS011;54465;51.230;22.504;2023-04-15T16:29:48;2.25;;;0.98;;
32946;SDS011;54465;51.230;22.504;2023-04-15T16:34:49;3.28;;;0.95;;
32946;SDS011;54465;51.230;22.504;2023-04-15T16:39:49;2.08;;;1.38;;
32946;SDS011;54465;51.230;22.504;2023-04-15T16:44:50;2.03;;;1.23;;
32946;SDS011;54465;51.230;22.504;2023-04-15T16:49:50;2.53;;;1.50;;
32946;SDS011;54465;51.230;22.504;2023-04-15T16:54:51;2.53;;;1.45;;
32946;SDS011;54465;51.230;22.504;2023-04-15T16:59:51;2.70;;;1.35;;
32946;SDS011;54465;51.230;22.504;2023-04-15T17:04:52;2.65;;;1.38;;
32946;SDS011;54465;51.230;22.504;2023-04-15T17:09:52;1.48;;;1.20;;
32946;SDS011;54465;51.230;22.504;2023-04-15T17:14:53;1.52;;;1.10;;
32946;SDS011;54465;51.230;22.504;2023-04-15T17:19:53;1.52;;;1.30;;
32946;SDS011;54465;51.230;22.504;2023-04-15T17:24:54;2.58;;;1.27;;
32946;SDS011;54465;51.230;22.504;2023-04-15T17:29:55;2.20;;;1.52;;
32946;SDS011;54465;51.230;22.504;2023-04-15T17:35:16;2.75;;;1.67;;
32946;SDS011;54465;51.230;22.504;2023-04-15T17:40:37;2.17;;;1.25;;
32946;SDS011;54465;51.230;22.504;2023-04-15T17:45:57;3.15;;;1.77;;
32946;SDS011;54465;51.230;22.504;2023-04-15T17:51:18;3.92;;;2.28;;
32946;SDS011;54465;51.230;22.504;2023-04-15T17:56:39;3.35;;;1.70;;
32946;SDS011;54465;51.230;22.504;2023-04-15T18:01:59;3.60;;;1.77;;
32946;SDS011;54465;51.230;22.504;2023-04-15T18:07:20;4.43;;;1.98;;
32946;SDS011;54465;51.230;22.504;2023-04-15T18:12:40;4.07;;;2.47;;
32946;SDS011;54465;51.230;22.504;2023-04-15T18:18:01;3.53;;;2.28;;
32946;SDS011;54465;51.230;22.504;2023-04-15T18:23:01;5.05;;;2.45;;
32946;SDS011;54465;51.230;22.504;2023-04-15T18:28:02;5.10;;;3.00;;
32946;SDS011;54465;51.230;22.504;2023-04-15T18:33:04;6.30;;;2.80;;
32946;SDS011;54465;51.230;22.504;2023-04-15T18:38:04;5.40;;;3.03;;
32946;SDS011;54465;51.230;22.504;2023-04-15T18:43:05;6.85;;;2.75;;
32946;SDS011;54465;51.230;22.504;2023-04-15T18:48:05;5.07;;;2.60;;
32946;SDS011;54465;51.230;22.504;2023-04-15T18:53:06;5.75;;;2.55;;
32946;SDS011;54465;51.230;22.504;2023-04-15T18:58:06;4.97;;;2.08;;
32946;SDS011;54465;51.230;22.504;2023-04-15T19:03:07;3.35;;;2.03;;
32946;SDS011;54465;51.230;22.504;2023-04-15T19:08:07;6.28;;;2.28;;
32946;SDS011;54465;51.230;22.504;2023-04-15T19:13:08;5.20;;;2.30;;
32946;SDS011;54465;51.230;22.504;2023-04-15T19:18:08;4.32;;;2.10;;
32946;SDS011;54465;51.230;22.504;2023-04-15T19:23:09;3.53;;;2.15;;
32946;SDS011;54465;51.230;22.504;2023-04-15T19:28:10;2.85;;;1.55;;
32946;SDS011;54465;51.230;22.504;2023-04-15T19:33:10;6.78;;;2.13;;
32946;SDS011;54465;51.230;22.504;2023-04-15T19:38:11;4.22;;;2.22;;
32946;SDS011;54465;51.230;22.504;2023-04-15T19:43:11;3.47;;;2.10;;
32946;SDS011;54465;51.230;22.504;2023-04-15T19:48:12;3.63;;;1.90;;
32946;SDS011;54465;51.230;22.504;2023-04-15T19:53:12;3.30;;;1.70;;
32946;SDS011;54465;51.230;22.504;2023-04-15T19:58:13;5.95;;;1.95;;
32946;SDS011;54465;51.230;22.504;2023-04-15T20:03:13;3.45;;;1.95;;
32946;SDS011;54465;51.230;22.504;2023-04-15T20:08:15;3.28;;;1.90;;
32946;SDS011;54465;51.230;22.504;2023-04-15T20:13:15;3.53;;;1.58;;
32946;SDS011;54465;51.230;22.504;2023-04-15T20:18:16;1.95;;;1.73;;
32946;SDS011;54465;51.230;22.504;2023-04-15T20:23:16;3.58;;;1.60;;
32946;SDS011;54465;51.230;22.504;2023-04-15T20:28:16;2.25;;;1.40;;
32946;SDS011;54465;51.230;22.504;2023-04-15T20:33:18;4.13;;;2.13;;
32946;SDS011;54465;51.230;22.504;2023-04-15T20:38:18;2.83;;;1.63;;
32946;SDS011;54465;51.230;22.504;2023-04-15T20:43:19;3.67;;;1.98;;
32946;SDS011;54465;51.230;22.504;2023-04-15T20:48:21;3.13;;;1.80;;
32946;SDS011;54465;51.230;22.504;2023-04-15T20:53:21;2.47;;;1.55;;
32946;SDS011;54465;51.230;22.504;2023-04-15T20:58:22;3.08;;;1.90;;
32946;SDS011;54465;51.230;22.504;2023-04-15T21:03:22;3.80;;;1.80;;
32946;SDS011;54465;51.230;22.504;2023-04-15T21:08:23;5.72;;;1.80;;
32946;SDS011;54465;51.230;22.504;2023-04-15T21:13:29;5.40;;;1.90;;
32946;SDS011;54465;51.230;22.504;2023-04-15T21:18:30;2.72;;;1.70;;
32946;SDS011;54465;51.230;22.504;2023-04-15T21:23:31;5.38;;;2.08;;
32946;SDS011;54465;51.230;22.504;2023-04-15T21:28:34;4.38;;;1.92;;
32946;SDS011;54465;51.230;22.504;2023-04-15T21:33:36;4.15;;;2.10;;
32946;SDS011;54465;51.230;22.504;2023-04-15T21:38:36;5.13;;;1.98;;
32946;SDS011;54465;51.230;22.504;2023-04-15T21:43:37;3.58;;;1.90;;
32946;SDS011;54465;51.230;22.504;2023-04-15T21:48:37;3.63;;;2.15;;
32946;SDS011;54465;51.230;22.504;2023-04-15T21:53:38;4.72;;;2.00;;
32946;SDS011;54465;51.230;22.504;2023-04-15T21:58:38;2.85;;;2.05;;
32946;SDS011;54465;51.230;22.504;2023-04-15T22:03:39;4.18;;;2.45;;
32946;SDS011;54465;51.230;22.504;2023-04-15T22:08:39;2.83;;;1.83;;
32946;SDS011;54465;51.230;22.504;2023-04-15T22:13:40;3.85;;;2.15;;
32946;SDS011;54465;51.230;22.504;2023-04-15T22:18:41;3.42;;;2.10;;
32946;SDS011;54465;51.230;22.504;2023-04-15T22:23:44;5.82;;;2.38;;
32946;SDS011;54465;51.230;22.504;2023-04-15T22:28:45;2.33;;;1.90;;
32946;SDS011;54465;51.230;22.504;2023-04-15T22:33:46;3.50;;;2.17;;
32946;SDS011;54465;51.230;22.504;2023-04-15T22:38:46;3.28;;;2.35;;
32946;SDS011;54465;51.230;22.504;2023-04-15T22:43:46;4.55;;;2.38;;
32946;SDS011;54465;51.230;22.504;2023-04-15T22:48:47;4.78;;;2.35;;
32946;SDS011;54465;51.230;22.504;2023-04-15T22:53:48;3.30;;;2.50;;
32946;SDS011;54465;51.230;22.504;2023-04-15T22:58:49;4.45;;;2.60;;
32946;SDS011;54465;51.230;22.504;2023-04-15T23:03:50;7.40;;;2.40;;
32946;SDS011;54465;51.230;22.504;2023-04-15T23:08:51;4.88;;;2.95;;
32946;SDS011;54465;51.230;22.504;2023-04-15T23:13:51;4.50;;;2.50;;
32946;SDS011;54465;51.230;22.504;2023-04-15T23:18:52;6.25;;;2.67;;
32946;SDS011;54465;51.230;22.504;2023-04-15T23:23:53;4.78;;;2.50;;
32946;SDS011;54465;51.230;22.504;2023-04-15T23:28:54;4.72;;;2.58;;
32946;SDS011;54465;51.230;22.504;2023-04-15T23:33:54;4.72;;;2.40;;
32946;SDS011;54465;51.230;22.504;2023-04-15T23:38:55;5.43;;;2.70;;
32946;SDS011;54465;51.230;22.504;2023-04-15T23:43:55;7.32;;;2.30;;
32946;SDS011;54465;51.230;22.504;2023-04-15T23:48:56;3.53;;;2.42;;
32946;SDS011;54465;51.230;22.504;2023-04-15T23:53:56;3.40;;;2.38;;
32946;SDS011;54465;51.230;22.504;2023-04-15T23:58:57;3.83;;;2.55;;
